createdAt,value
2022-09-03T00:02:16.023Z,0.50
2022-09-03T00:05:10.059Z,0.50
2022-09-03T00:08:05.390Z,0.60
2022-09-03T00:10:58.696Z,0.70
2022-09-03T00:13:52.207Z,0.65
2022-09-03T00:16:46.381Z,0.55
2022-09-03T00:19:38.247Z,0.50
2022-09-03T00:22:33.019Z,1.25
2022-09-03T00:25:27.788Z,0.90
2022-09-03T00:28:20.444Z,0.80
2022-09-03T00:31:15.011Z,0.80
2022-09-03T00:34:06.997Z,0.77
2022-09-03T00:36:55.352Z,0.73
2022-09-03T00:39:45.103Z,0.65
2022-09-03T00:42:43.507Z,0.80
2022-09-03T00:45:39.712Z,0.60
2022-09-03T00:48:31.787Z,0.60
2022-09-03T00:51:28.332Z,0.70
2022-09-03T00:54:25.485Z,0.60
2022-09-03T00:57:25.698Z,0.68
2022-09-03T01:00:16.596Z,0.60
2022-09-03T01:03:10.206Z,0.63
2022-09-03T01:06:09.140Z,0.55
2022-09-03T01:09:12.030Z,0.88
2022-09-03T01:12:13.479Z,0.80
2022-09-03T01:15:11.319Z,0.88
2022-09-03T01:18:12.047Z,0.70
2022-09-03T01:21:19.180Z,0.70
2022-09-03T01:24:35.155Z,0.80
2022-09-03T01:27:37.883Z,0.60
2022-09-03T01:30:27.809Z,0.70
2022-09-03T01:33:26.473Z,0.70
2022-09-03T01:36:24.914Z,0.70
2022-09-03T01:39:19.230Z,0.85
2022-09-03T01:42:20.762Z,0.85
2022-09-03T01:45:30.872Z,0.50
2022-09-03T01:48:41.299Z,0.70
2022-09-03T01:51:31.739Z,0.60
2022-09-03T01:54:36.950Z,0.65
2022-09-03T01:57:40.103Z,0.55
2022-09-03T02:00:35.578Z,0.77
2022-09-03T02:03:25.278Z,0.80
2022-09-03T02:06:13.769Z,0.57
2022-09-03T02:09:01.909Z,0.60
2022-09-03T02:11:55.733Z,0.60
2022-09-03T02:14:44.253Z,0.80
2022-09-03T02:17:34.593Z,0.60
2022-09-03T02:20:25.147Z,0.57
2022-09-03T02:23:13.305Z,0.82
2022-09-03T02:26:04.197Z,0.50
2022-09-03T02:28:53.941Z,0.70
2022-09-03T02:31:42.291Z,0.70
2022-09-03T02:34:32.299Z,0.57
2022-09-03T02:40:11.043Z,0.80
2022-09-03T02:43:00.067Z,0.60
2022-09-03T02:45:50.141Z,0.73
2022-09-03T02:48:38.344Z,0.77
2022-09-03T02:51:27.851Z,0.70
2022-09-03T02:54:20.725Z,0.68
2022-09-03T02:57:10.588Z,0.95
2022-09-03T02:59:58.864Z,0.65
2022-09-03T03:02:47.325Z,0.60
2022-09-03T03:05:44.751Z,0.80
2022-09-03T03:08:35.216Z,0.80
2022-09-03T03:11:25.159Z,0.68
2022-09-03T03:14:13.324Z,0.60
2022-09-03T03:17:01.555Z,0.80
2022-09-03T03:19:50.024Z,1.25
2022-09-03T03:22:38.285Z,0.70
2022-09-03T03:25:27.847Z,0.75
2022-09-03T03:28:16.247Z,0.80
2022-09-03T03:31:08.610Z,0.88
2022-09-03T03:33:58.147Z,1.27
2022-09-03T03:36:46.293Z,0.80
2022-09-03T03:39:36.028Z,0.90
2022-09-03T03:42:25.927Z,0.90
2022-09-03T03:45:14.057Z,0.90
2022-09-03T03:48:02.229Z,0.70
2022-09-03T03:50:50.597Z,0.80
2022-09-03T03:53:41.395Z,0.80
2022-09-03T03:56:29.590Z,0.73
2022-09-03T03:59:19.085Z,1.17
2022-09-03T04:02:07.308Z,0.90
2022-09-03T04:04:55.500Z,0.88
2022-09-03T04:07:44.441Z,1.02
2022-09-03T04:10:32.682Z,0.93
2022-09-03T04:13:21.047Z,0.90
2022-09-03T04:16:12.082Z,0.95
2022-09-03T04:21:49.851Z,0.95
2022-09-03T04:24:39.031Z,0.90
2022-09-03T04:27:27.208Z,1.10
2022-09-03T04:30:15.489Z,1.02
2022-09-03T04:33:05.554Z,0.93
2022-09-03T04:35:53.688Z,0.90
2022-09-03T04:38:43.353Z,1.00
2022-09-03T04:41:32.677Z,1.25
2022-09-03T04:44:20.843Z,1.02
2022-09-03T04:47:09.293Z,0.90
2022-09-03T04:49:59.024Z,1.10
2022-09-03T04:52:47.241Z,1.10
2022-09-03T04:55:36.063Z,1.27
2022-09-03T04:58:24.355Z,1.10
2022-09-03T05:01:16.598Z,1.08
2022-09-03T05:04:05.910Z,1.17
2022-09-03T05:06:55.474Z,1.23
2022-09-03T05:09:43.604Z,1.35
2022-09-03T05:12:31.766Z,1.30
2022-09-03T05:15:19.870Z,1.38
2022-09-03T05:18:08.026Z,1.23
2022-09-03T05:21:00.817Z,1.75
2022-09-03T05:23:51.571Z,1.77
2022-09-03T05:26:40.562Z,2.28
2022-09-03T05:29:28.725Z,1.60
2022-09-03T05:32:17.392Z,1.30
2022-09-03T05:35:06.587Z,1.45
2022-09-03T05:37:57.081Z,1.30
2022-09-03T05:40:46.575Z,1.30
2022-09-03T05:43:35.846Z,1.17
2022-09-03T05:46:26.771Z,1.20
2022-09-03T05:49:14.924Z,1.35
2022-09-03T05:52:03.497Z,1.27
2022-09-03T05:54:51.668Z,1.45
2022-09-03T05:57:41.217Z,1.25
2022-09-03T06:00:29.369Z,1.42
2022-09-03T06:03:17.640Z,1.30
2022-09-03T06:06:07.212Z,1.40
2022-09-03T06:08:58.124Z,1.33
2022-09-03T06:11:47.626Z,1.60
2022-09-03T06:14:39.619Z,1.52
2022-09-03T06:17:27.749Z,1.35
2022-09-03T06:20:16.130Z,1.35
2022-09-03T06:23:04.329Z,1.33
2022-09-03T06:26:05.055Z,1.52
2022-09-03T06:28:55.069Z,1.75
2022-09-03T06:31:44.829Z,1.63
2022-09-03T06:34:33.195Z,1.75
2022-09-03T06:37:21.368Z,1.40
2022-09-03T06:40:13.064Z,1.25
2022-09-03T06:43:01.991Z,1.40
2022-09-03T06:45:57.675Z,1.23
2022-09-03T06:48:47.823Z,1.70
2022-09-03T06:51:37.838Z,1.47
2022-09-03T06:54:26.011Z,1.10
2022-09-03T06:57:14.188Z,1.77
2022-09-03T07:00:04.588Z,1.80
2022-09-03T07:02:58.534Z,1.63
2022-09-03T07:05:48.799Z,1.48
2022-09-03T07:08:37.526Z,1.40
2022-09-03T07:11:29.170Z,1.40
2022-09-03T07:14:19.221Z,1.45
2022-09-03T07:17:07.441Z,1.30
2022-09-03T07:19:55.690Z,1.33
2022-09-03T07:22:45.170Z,1.70
2022-09-03T07:25:33.323Z,1.05
2022-09-03T07:28:21.642Z,1.45
2022-09-03T07:31:12.689Z,1.30
2022-09-03T07:34:05.583Z,1.15
2022-09-03T07:36:54.016Z,1.13
2022-09-03T07:39:43.941Z,1.15
2022-09-03T07:42:32.597Z,1.10
2022-09-03T07:45:20.927Z,1.35
2022-09-03T07:48:09.088Z,1.27
2022-09-03T07:51:01.005Z,1.15
2022-09-03T07:53:50.050Z,1.33
2022-09-03T07:56:41.312Z,1.13
2022-09-03T07:59:29.452Z,1.80
2022-09-03T08:02:17.640Z,1.40
2022-09-03T08:05:07.399Z,1.10
2022-09-03T08:07:55.559Z,1.40
2022-09-03T08:10:43.726Z,1.10
2022-09-03T08:13:33.968Z,1.30
2022-09-03T08:16:22.237Z,1.27
2022-09-03T08:19:11.332Z,1.90
2022-09-03T08:21:59.628Z,1.20
2022-09-03T08:24:48.336Z,1.02
2022-09-03T08:27:36.663Z,1.60
2022-09-03T08:30:27.527Z,1.23
2022-09-03T08:36:06.045Z,1.20
2022-09-03T08:38:55.835Z,1.23
2022-09-03T08:42:03.306Z,1.40
2022-09-03T08:44:56.138Z,0.98
2022-09-03T08:47:51.900Z,1.35
2022-09-03T08:50:42.345Z,0.93
2022-09-03T08:53:37.675Z,1.00
2022-09-03T08:56:29.942Z,1.00
2022-09-03T08:59:18.108Z,1.05
2022-09-03T09:02:19.669Z,1.90
2022-09-03T09:05:14.568Z,1.05
2022-09-03T09:08:10.541Z,2.10
2022-09-03T09:11:07.650Z,0.93
2022-09-03T09:14:03.480Z,1.00
2022-09-03T09:17:02.078Z,1.15
2022-09-03T09:19:59.847Z,0.98
2022-09-03T09:22:53.454Z,1.13
2022-09-03T09:25:48.281Z,0.75
2022-09-03T09:28:37.889Z,1.25
2022-09-03T09:31:26.285Z,1.00
2022-09-03T09:34:15.333Z,0.90
2022-09-03T09:37:06.455Z,0.88
2022-09-03T09:40:01.139Z,0.90
2022-09-03T09:42:49.434Z,0.80
2022-09-03T09:45:40.785Z,1.25
2022-09-03T09:48:32.669Z,0.70
2022-09-03T09:51:23.406Z,1.13
2022-09-03T09:57:06.277Z,1.13
2022-09-03T10:00:06.745Z,0.85
2022-09-03T10:02:55.719Z,0.95
2022-09-03T10:06:25.728Z,0.93
2022-09-03T10:09:16.856Z,1.30
2022-09-03T10:12:15.224Z,1.17
2022-09-03T10:15:16.769Z,1.20
2022-09-03T10:18:12.354Z,1.13
2022-09-03T10:21:05.156Z,0.90
2022-09-03T10:24:01.708Z,1.30
2022-09-03T10:26:53.285Z,1.17
2022-09-03T10:29:42.935Z,1.10
2022-09-03T10:32:42.791Z,1.00
2022-09-03T10:35:37.814Z,0.98
2022-09-03T10:38:30.426Z,1.00
2022-09-03T10:41:31.518Z,0.93
2022-09-03T10:44:40.143Z,1.08
2022-09-03T10:47:53.034Z,1.10
2022-09-03T10:50:48.619Z,1.20
2022-09-03T10:53:57.699Z,1.10
2022-09-03T10:56:55.813Z,1.08
2022-09-03T11:00:04.068Z,0.80
2022-09-03T11:03:30.906Z,1.10
2022-09-03T11:06:24.836Z,1.00
2022-09-03T11:09:19.614Z,1.30
2022-09-03T11:12:12.927Z,1.00
2022-09-03T11:15:05.901Z,1.05
2022-09-03T11:17:59.598Z,1.00
2022-09-03T11:20:50.658Z,1.33
2022-09-03T11:23:44.612Z,0.93
2022-09-03T11:26:35.231Z,1.35
2022-09-03T11:29:31.014Z,1.25
2022-09-03T11:32:23.200Z,1.33
2022-09-03T11:35:16.553Z,1.00
2022-09-03T11:38:07.386Z,0.70
2022-09-03T11:41:04.416Z,0.93
2022-09-03T11:43:53.149Z,1.10
2022-09-03T11:46:42.255Z,1.10
2022-09-03T11:49:33.586Z,1.05
2022-09-03T11:52:33.676Z,1.05
2022-09-03T11:55:38.211Z,1.02
2022-09-03T11:58:35.309Z,0.90
2022-09-03T12:01:24.644Z,1.13
2022-09-03T12:04:18.183Z,1.20
2022-09-03T12:07:31.030Z,1.20
2022-09-03T12:10:35.926Z,1.20
2022-09-03T12:13:38.323Z,1.23
2022-09-03T12:16:45.058Z,1.10
2022-09-03T12:19:42.161Z,1.35
2022-09-03T12:22:31.480Z,1.13
2022-09-03T12:25:19.798Z,1.08
2022-09-03T12:28:13.947Z,1.10
2022-09-03T12:31:14.491Z,1.17
2022-09-03T12:36:55.093Z,1.15
2022-09-03T12:40:08.742Z,1.35
2022-09-03T12:46:24.641Z,1.35
2022-09-03T12:49:30.521Z,1.48
2022-09-03T12:52:22.073Z,1.20
2022-09-03T12:55:27.113Z,1.10
2022-09-03T12:58:20.088Z,1.20
2022-09-03T13:01:13.171Z,1.20
2022-09-03T13:04:07.986Z,1.20
2022-09-03T13:07:03.975Z,1.27
2022-09-03T13:09:52.414Z,1.35
2022-09-03T13:12:51.148Z,1.13
2022-09-03T13:15:41.472Z,1.65
2022-09-03T13:18:40.116Z,1.70
2022-09-03T13:21:40.974Z,1.33
2022-09-03T13:24:50.657Z,5.32
2022-09-03T13:27:44.690Z,1.70
2022-09-03T13:30:39.227Z,1.50
2022-09-03T13:33:34.957Z,1.15
2022-09-03T13:36:27.342Z,1.27
2022-09-03T13:39:27.586Z,1.20
2022-09-03T13:45:17.072Z,1.30
2022-09-03T13:48:30.738Z,1.30
2022-09-03T13:51:24.609Z,1.40
2022-09-03T13:54:31.155Z,1.05
2022-09-03T13:57:35.044Z,1.25
2022-09-03T14:00:31.238Z,1.80
2022-09-03T14:03:32.163Z,1.40
2022-09-03T14:06:32.048Z,1.45
2022-09-03T14:09:33.994Z,1.40
2022-09-03T14:12:35.272Z,1.20
2022-09-03T14:15:29.457Z,1.35
2022-09-03T14:18:32.223Z,1.13
2022-09-03T14:21:25.786Z,1.23
2022-09-03T14:24:18.184Z,1.40
2022-09-03T14:27:07.598Z,1.30
2022-09-03T14:30:02.652Z,1.40
2022-09-03T14:32:57.172Z,1.50
2022-09-03T14:36:13.468Z,1.17
2022-09-03T14:39:18.908Z,1.20
2022-09-03T14:42:24.930Z,1.88
2022-09-03T14:45:49.132Z,1.40
2022-09-03T14:48:54.475Z,1.65
2022-09-03T14:51:56.247Z,1.52
2022-09-03T14:55:07.429Z,1.50
2022-09-03T14:58:08.434Z,1.45
2022-09-03T15:01:02.684Z,1.50
2022-09-03T15:04:20.490Z,1.45
2022-09-03T15:07:30.920Z,1.50
2022-09-03T15:10:28.510Z,1.55
2022-09-03T15:13:20.496Z,1.05
2022-09-03T15:16:23.141Z,1.15
2022-09-03T15:19:27.612Z,1.42
2022-09-03T15:22:25.946Z,1.55
2022-09-03T15:25:22.947Z,1.40
2022-09-03T15:28:18.291Z,1.40
2022-09-03T15:31:17.345Z,1.17
2022-09-03T15:34:16.355Z,1.52
2022-09-03T15:37:14.640Z,1.40
2022-09-03T15:40:07.703Z,1.02
2022-09-03T15:43:00.942Z,1.65
2022-09-03T15:45:58.213Z,1.55
2022-09-03T15:48:51.535Z,1.60
2022-09-03T15:51:50.028Z,1.25
2022-09-03T15:54:47.808Z,1.50
2022-09-03T15:57:43.067Z,1.48
2022-09-03T16:00:32.957Z,1.42
2022-09-03T16:03:34.015Z,1.50
2022-09-03T16:06:38.351Z,1.40
2022-09-03T16:09:37.754Z,1.55
2022-09-03T16:12:37.041Z,1.52
2022-09-03T16:15:29.454Z,1.77
2022-09-03T16:18:30.154Z,1.45
2022-09-03T16:21:26.198Z,1.60
2022-09-03T16:24:19.624Z,1.98
2022-09-03T16:27:16.735Z,1.75
2022-09-03T16:30:12.477Z,1.60
2022-09-03T16:33:10.020Z,1.90
2022-09-03T16:36:09.337Z,1.95
2022-09-03T16:39:04.001Z,1.48
2022-09-03T16:42:00.702Z,1.88
2022-09-03T16:45:00.847Z,1.33
2022-09-03T16:48:05.338Z,1.35
2022-09-03T16:51:09.166Z,1.42
2022-09-03T16:54:16.417Z,1.75
2022-09-03T16:57:18.941Z,1.38
2022-09-03T17:00:12.325Z,1.17
2022-09-03T17:03:29.576Z,1.48
2022-09-03T17:07:01.278Z,1.70
2022-09-03T17:10:01.519Z,1.42
2022-09-03T17:15:50.603Z,1.90
2022-09-03T17:18:51.635Z,2.05
2022-09-03T17:21:48.900Z,1.80
2022-09-03T17:24:42.553Z,1.75
2022-09-03T17:27:46.367Z,3.13
2022-09-03T17:30:41.356Z,2.47
2022-09-03T17:33:59.080Z,1.88
2022-09-03T17:36:59.957Z,1.98
2022-09-03T17:40:13.241Z,1.80
2022-09-03T17:43:13.478Z,2.08
2022-09-03T17:46:14.459Z,1.83
2022-09-03T17:49:08.200Z,1.88
2022-09-03T17:52:03.125Z,1.80
2022-09-03T17:54:55.362Z,2.20
2022-09-03T17:57:47.798Z,1.70
2022-09-03T18:00:40.901Z,1.60
2022-09-03T18:03:35.773Z,2.00
2022-09-03T18:06:37.880Z,1.63
2022-09-03T18:09:37.721Z,2.17
2022-09-03T18:12:34.889Z,1.77
2022-09-03T18:15:30.235Z,1.88
2022-09-03T18:18:27.073Z,2.08
2022-09-03T18:21:38.952Z,2.13
2022-09-03T18:24:51.896Z,1.98
2022-09-03T18:28:00.836Z,2.05
2022-09-03T18:31:06.611Z,2.35
2022-09-03T18:34:12.412Z,2.20
2022-09-03T18:37:18.346Z,2.40
2022-09-03T18:40:29.457Z,1.95
2022-09-03T18:43:42.700Z,1.77
2022-09-03T18:50:29.392Z,1.90
2022-09-03T18:53:44.707Z,1.77
2022-09-03T18:56:56.499Z,1.98
2022-09-03T19:00:15.856Z,2.22
2022-09-03T19:03:40.004Z,2.75
2022-09-03T19:06:56.603Z,2.28
2022-09-03T19:10:12.493Z,2.08
2022-09-03T19:13:35.216Z,2.00
2022-09-03T19:16:51.273Z,2.38
2022-09-03T19:20:08.734Z,2.28
2022-09-03T19:23:14.952Z,2.20
2022-09-03T19:26:28.065Z,2.65
2022-09-03T19:29:47.812Z,2.05
2022-09-03T19:33:06.785Z,1.75
2022-09-03T19:36:26.331Z,2.05
2022-09-03T19:39:47.815Z,1.80
2022-09-03T19:43:04.910Z,2.35
2022-09-03T19:46:23.157Z,2.13
2022-09-03T19:49:36.866Z,2.30
2022-09-03T19:52:48.939Z,2.28
2022-09-03T19:56:00.929Z,2.03
2022-09-03T19:59:14.637Z,1.90
2022-09-03T20:02:21.972Z,2.10
2022-09-03T20:05:32.554Z,2.40
2022-09-03T20:08:40.386Z,2.10
2022-09-03T20:11:31.326Z,2.45
2022-09-03T20:14:20.496Z,2.22
2022-09-03T20:17:19.256Z,2.17
2022-09-03T20:20:25.167Z,2.47
2022-09-03T20:23:21.324Z,2.42
2022-09-03T20:26:20.555Z,2.15
2022-09-03T20:29:33.048Z,1.80
2022-09-03T20:32:44.201Z,1.85
2022-09-03T20:35:43.216Z,2.22
2022-09-03T20:39:07.143Z,2.42
2022-09-03T20:42:02.891Z,2.17
2022-09-03T20:45:06.467Z,2.10
2022-09-03T20:48:10.915Z,2.03
2022-09-03T20:51:03.893Z,1.65
2022-09-03T20:54:08.852Z,2.20
2022-09-03T20:57:14.511Z,2.30
2022-09-03T21:00:09.269Z,2.10
2022-09-03T21:03:22.706Z,1.65
2022-09-03T21:06:21.925Z,2.25
2022-09-03T21:09:32.876Z,2.30
2022-09-03T21:15:22.373Z,1.90
2022-09-03T21:18:17.652Z,2.45
2022-09-03T21:21:21.823Z,2.05
2022-09-03T21:24:15.721Z,2.30
2022-09-03T21:27:08.195Z,2.40
2022-09-03T21:30:02.912Z,2.22
2022-09-03T21:32:54.996Z,2.42
2022-09-03T21:35:48.112Z,2.00
2022-09-03T21:38:39.714Z,2.42
2022-09-03T21:41:32.253Z,2.40
2022-09-03T21:44:31.488Z,2.50
2022-09-03T21:47:22.185Z,2.35
2022-09-03T21:50:18.435Z,2.33
2022-09-03T21:53:12.324Z,2.30
2022-09-03T21:56:28.266Z,2.38
2022-09-03T21:59:29.287Z,2.88
2022-09-03T22:02:24.589Z,3.05
2022-09-03T22:05:13.799Z,2.85
2022-09-03T22:08:19.334Z,2.50
2022-09-03T22:11:13.613Z,2.05
2022-09-03T22:14:10.611Z,2.90
2022-09-03T22:17:05.170Z,2.40
2022-09-03T22:19:53.442Z,2.38
2022-09-03T22:22:44.875Z,2.45
2022-09-03T22:25:41.866Z,2.85
2022-09-03T22:28:37.043Z,2.00
2022-09-03T22:31:36.923Z,2.70
2022-09-03T22:34:45.546Z,2.20
2022-09-03T22:37:47.610Z,2.63
2022-09-03T22:40:42.515Z,2.22
2022-09-03T22:43:39.172Z,2.40
2022-09-03T22:46:33.299Z,2.42
2022-09-03T22:49:34.787Z,2.38
2022-09-03T22:52:39.487Z,2.50
2022-09-03T22:55:27.862Z,2.72
2022-09-03T22:58:20.785Z,2.40
2022-09-03T23:01:14.453Z,2.47
2022-09-03T23:04:11.373Z,2.75
2022-09-03T23:07:04.185Z,3.05
2022-09-03T23:09:58.287Z,2.80
2022-09-03T23:12:51.225Z,2.80
2022-09-03T23:15:41.820Z,2.60
2022-09-03T23:18:33.553Z,2.53
2022-09-03T23:21:28.135Z,3.22
2022-09-03T23:24:21.381Z,3.10
2022-09-03T23:27:16.219Z,2.83
2022-09-03T23:30:06.116Z,2.58
2022-09-03T23:32:58.478Z,2.55
2022-09-03T23:35:53.942Z,2.90
2022-09-03T23:38:55.987Z,2.70
2022-09-03T23:41:54.909Z,2.67
2022-09-03T23:44:57.387Z,3.92
2022-09-03T23:47:54.878Z,3.25
2022-09-03T23:50:52.797Z,2.67
2022-09-03T23:53:55.454Z,2.92
2022-09-03T23:57:15.354Z,3.03
